sensor_id;sensor_type;location;lat;lon;timestamp;temperature;humidity
17200;DHT22;8716;52.268;20.968;2024-01-11T00:01:45;-4.00;99.90
17200;DHT22;8716;52.268;20.968;2024-01-11T00:04:15;-4.10;99.90
17200;DHT22;8716;52.268;20.968;2024-01-11T00:06:44;-4.10;99.90
17200;DHT22;8716;52.268;20.968;2024-01-11T00:09:13;-4.20;99.90
17200;DHT22;8716;52.268;20.968;2024-01-11T00:11:41;-4.20;99.90
17200;DHT22;8716;52.268;20.968;2024-01-11T00:14:10;-4.20;99.90
17200;DHT22;8716;52.268;20.968;2024-01-11T00:16:38;-4.30;99.90
17200;DHT22;8716;52.268;20.968;2024-01-11T00:19:06;-4.30;99.90
17200;DHT22;8716;52.268;20.968;2024-01-11T00:21:36;-4.30;99.90
17200;DHT22;8716;52.268;20.968;2024-01-11T00:24:07;-4.40;99.90
17200;DHT22;8716;52.268;20.968;2024-01-11T00:26:36;-4.40;99.90
17200;DHT22;8716;52.268;20.968;2024-01-11T00:29:04;-4.40;99.90
17200;DHT22;8716;52.268;20.968;2024-01-11T00:31:33;-4.40;99.90
17200;DHT22;8716;52.268;20.968;2024-01-11T00:34:01;-4.40;99.90
17200;DHT22;8716;52.268;20.968;2024-01-11T00:36:30;-4.30;99.90
17200;DHT22;8716;52.268;20.968;2024-01-11T00:39:01;-4.40;99.90
17200;DHT22;8716;52.268;20.968;2024-01-11T00:41:29;-4.40;99.90
17200;DHT22;8716;52.268;20.968;2024-01-11T00:43:57;-4.50;99.90
17200;DHT22;8716;52.268;20.968;2024-01-11T00:46:26;-4.50;99.90
17200;DHT22;8716;52.268;20.968;2024-01-11T00:48:54;-4.50;99.90
17200;DHT22;8716;52.268;20.968;2024-01-11T00:51:24;-4.60;99.90
17200;DHT22;8716;52.268;20.968;2024-01-11T00:53:52;-4.50;99.90
17200;DHT22;8716;52.268;20.968;2024-01-11T00:56:22;-4.60;99.90
17200;DHT22;8716;52.268;20.968;2024-01-11T00:58:52;-4.60;99.90
17200;DHT22;8716;52.268;20.968;2024-01-11T01:01:21;-4.60;99.90
17200;DHT22;8716;52.268;20.968;2024-01-11T01:03:49;-4.60;99.90
17200;DHT22;8716;52.268;20.968;2024-01-11T01:06:17;-4.60;99.90
17200;DHT22;8716;52.268;20.968;2024-01-11T01:08:46;-4.60;99.90
17200;DHT22;8716;52.268;20.968;2024-01-11T01:11:14;-4.60;99.90
17200;DHT22;8716;52.268;20.968;2024-01-11T01:13:44;-4.60;99.90
17200;DHT22;8716;52.268;20.968;2024-01-11T01:16:15;-4.50;99.90
17200;DHT22;8716;52.268;20.968;2024-01-11T01:18:44;-4.40;99.90
17200;DHT22;8716;52.268;20.968;2024-01-11T01:21:13;-4.40;99.90
17200;DHT22;8716;52.268;20.968;2024-01-11T01:23:41;-4.30;99.90
17200;DHT22;8716;52.268;20.968;2024-01-11T01:26:09;-4.30;99.90
17200;DHT22;8716;52.268;20.968;2024-01-11T01:28:38;-4.30;99.90
17200;DHT22;8716;52.268;20.968;2024-01-11T01:31:11;-4.30;99.90
17200;DHT22;8716;52.268;20.968;2024-01-11T01:33:40;-4.30;99.90
17200;DHT22;8716;52.268;20.968;2024-01-11T01:36:10;-4.30;99.90
17200;DHT22;8716;52.268;20.968;2024-01-11T01:38:38;-4.30;99.90
17200;DHT22;8716;52.268;20.968;2024-01-11T01:41:07;-4.20;99.90
17200;DHT22;8716;52.268;20.968;2024-01-11T01:43:38;-4.20;99.90
17200;DHT22;8716;52.268;20.968;2024-01-11T01:46:06;-4.10;99.90
17200;DHT22;8716;52.268;20.968;2024-01-11T01:48:36;-4.20;99.90
17200;DHT22;8716;52.268;20.968;2024-01-11T01:51:06;-4.10;99.90
17200;DHT22;8716;52.268;20.968;2024-01-11T01:53:35;-4.10;99.90
17200;DHT22;8716;52.268;20.968;2024-01-11T01:56:05;-4.10;99.90
17200;DHT22;8716;52.268;20.968;2024-01-11T01:58:34;-4.10;99.90
17200;DHT22;8716;52.268;20.968;2024-01-11T02:01:03;-4.10;99.90
17200;DHT22;8716;52.268;20.968;2024-01-11T02:03:37;-4.00;99.90
17200;DHT22;8716;52.268;20.968;2024-01-11T02:06:06;-4.10;99.90
17200;DHT22;8716;52.268;20.968;2024-01-11T02:08:36;-4.00;99.90
17200;DHT22;8716;52.268;20.968;2024-01-11T02:11:05;-4.00;99.90
17200;DHT22;8716;52.268;20.968;2024-01-11T02:13:37;-4.00;99.90
17200;DHT22;8716;52.268;20.968;2024-01-11T02:16:05;-4.00;99.90
17200;DHT22;8716;52.268;20.968;2024-01-11T02:18:34;-3.90;99.90
17200;DHT22;8716;52.268;20.968;2024-01-11T02:21:08;-3.90;99.90
17200;DHT22;8716;52.268;20.968;2024-01-11T02:23:42;-3.90;99.90
17200;DHT22;8716;52.268;20.968;2024-01-11T02:26:14;-3.90;99.90
17200;DHT22;8716;52.268;20.968;2024-01-11T02:28:44;-3.90;99.90
17200;DHT22;8716;52.268;20.968;2024-01-11T02:31:15;-4.00;99.90
17200;DHT22;8716;52.268;20.968;2024-01-11T02:33:43;-3.90;99.90
17200;DHT22;8716;52.268;20.968;2024-01-11T02:36:13;-3.90;99.90
17200;DHT22;8716;52.268;20.968;2024-01-11T02:38:42;-3.90;99.90
17200;DHT22;8716;52.268;20.968;2024-01-11T02:41:11;-3.90;99.90
17200;DHT22;8716;52.268;20.968;2024-01-11T02:43:46;-3.90;99.90
17200;DHT22;8716;52.268;20.968;2024-01-11T02:46:15;-4.00;99.90
17200;DHT22;8716;52.268;20.968;2024-01-11T02:48:43;-3.90;99.90
17200;DHT22;8716;52.268;20.968;2024-01-11T02:51:12;-3.90;99.90
17200;DHT22;8716;52.268;20.968;2024-01-11T02:53:41;-4.00;99.90
17200;DHT22;8716;52.268;20.968;2024-01-11T02:56:10;-3.90;99.90
17200;DHT22;8716;52.268;20.968;2024-01-11T02:58:38;-4.00;99.90
17200;DHT22;8716;52.268;20.968;2024-01-11T03:01:08;-4.00;99.90
17200;DHT22;8716;52.268;20.968;2024-01-11T03:03:36;-3.90;99.90
17200;DHT22;8716;52.268;20.968;2024-01-11T03:06:05;-3.90;99.90
17200;DHT22;8716;52.268;20.968;2024-01-11T03:08:33;-3.90;99.90
17200;DHT22;8716;52.268;20.968;2024-01-11T03:11:02;-3.80;99.90
17200;DHT22;8716;52.268;20.968;2024-01-11T03:13:43;-3.90;99.90
17200;DHT22;8716;52.268;20.968;2024-01-11T03:16:13;-3.90;99.90
17200;DHT22;8716;52.268;20.968;2024-01-11T03:18:41;-3.90;99.90
17200;DHT22;8716;52.268;20.968;2024-01-11T03:21:11;-3.80;99.90
17200;DHT22;8716;52.268;20.968;2024-01-11T03:23:39;-3.80;99.90
17200;DHT22;8716;52.268;20.968;2024-01-11T03:26:13;-3.80;99.90
17200;DHT22;8716;52.268;20.968;2024-01-11T03:28:41;-3.80;99.90
17200;DHT22;8716;52.268;20.968;2024-01-11T03:31:10;-3.70;99.90
17200;DHT22;8716;52.268;20.968;2024-01-11T03:33:39;-3.70;99.90
17200;DHT22;8716;52.268;20.968;2024-01-11T03:36:09;-3.80;99.90
17200;DHT22;8716;52.268;20.968;2024-01-11T03:38:38;-3.80;99.90
17200;DHT22;8716;52.268;20.968;2024-01-11T03:41:10;-3.80;99.90
17200;DHT22;8716;52.268;20.968;2024-01-11T03:43:38;-3.90;99.90
17200;DHT22;8716;52.268;20.968;2024-01-11T03:46:06;-3.80;99.90
17200;DHT22;8716;52.268;20.968;2024-01-11T03:48:35;-3.80;99.90
17200;DHT22;8716;52.268;20.968;2024-01-11T03:51:05;-3.80;99.90
17200;DHT22;8716;52.268;20.968;2024-01-11T03:53:35;-3.90;99.90
17200;DHT22;8716;52.268;20.968;2024-01-11T03:56:05;-3.90;99.90
17200;DHT22;8716;52.268;20.968;2024-01-11T03:58:35;-3.90;99.90
17200;DHT22;8716;52.268;20.968;2024-01-11T04:01:06;-3.90;99.90
17200;DHT22;8716;52.268;20.968;2024-01-11T04:03:37;-3.90;99.90
17200;DHT22;8716;52.268;20.968;2024-01-11T04:06:07;-3.80;99.90
17200;DHT22;8716;52.268;20.968;2024-01-11T04:08:36;-3.80;99.90
17200;DHT22;8716;52.268;20.968;2024-01-11T04:11:04;-3.80;99.90
17200;DHT22;8716;52.268;20.968;2024-01-11T04:13:33;-3.80;99.90
17200;DHT22;8716;52.268;20.968;2024-01-11T04:16:04;-3.80;99.90
17200;DHT22;8716;52.268;20.968;2024-01-11T04:18:33;-3.80;99.90
17200;DHT22;8716;52.268;20.968;2024-01-11T04:21:01;-3.80;99.90
17200;DHT22;8716;52.268;20.968;2024-01-11T04:23:31;-3.80;99.90
17200;DHT22;8716;52.268;20.968;2024-01-11T04:25:59;-3.70;99.90
17200;DHT22;8716;52.268;20.968;2024-01-11T04:28:28;-3.70;99.90
17200;DHT22;8716;52.268;20.968;2024-01-11T04:30:56;-3.70;99.90
17200;DHT22;8716;52.268;20.968;2024-01-11T04:33:24;-3.70;99.90
17200;DHT22;8716;52.268;20.968;2024-01-11T04:35:53;-3.70;99.90
17200;DHT22;8716;52.268;20.968;2024-01-11T04:38:21;-3.70;99.90
17200;DHT22;8716;52.268;20.968;2024-01-11T04:40:51;-3.70;99.90
17200;DHT22;8716;52.268;20.968;2024-01-11T04:43:19;-3.70;99.90
17200;DHT22;8716;52.268;20.968;2024-01-11T04:45:47;-3.70;99.90
17200;DHT22;8716;52.268;20.968;2024-01-11T04:48:16;-3.70;99.90
17200;DHT22;8716;52.268;20.968;2024-01-11T04:50:44;-3.70;99.90
17200;DHT22;8716;52.268;20.968;2024-01-11T04:53:16;-3.70;99.90
17200;DHT22;8716;52.268;20.968;2024-01-11T04:55:45;-3.60;99.90
17200;DHT22;8716;52.268;20.968;2024-01-11T04:58:15;-3.60;99.90
17200;DHT22;8716;52.268;20.968;2024-01-11T05:00:43;-3.60;99.90
17200;DHT22;8716;52.268;20.968;2024-01-11T05:03:11;-3.70;99.90
17200;DHT22;8716;52.268;20.968;2024-01-11T05:05:40;-3.70;99.90
17200;DHT22;8716;52.268;20.968;2024-01-11T05:08:08;-3.70;99.90
17200;DHT22;8716;52.268;20.968;2024-01-11T05:10:36;-3.60;99.90
17200;DHT22;8716;52.268;20.968;2024-01-11T05:13:05;-3.70;99.90
17200;DHT22;8716;52.268;20.968;2024-01-11T05:15:35;-3.60;99.90
17200;DHT22;8716;52.268;20.968;2024-01-11T05:18:04;-3.60;99.90
17200;DHT22;8716;52.268;20.968;2024-01-11T05:20:32;-3.70;99.90
17200;DHT22;8716;52.268;20.968;2024-01-11T05:23:01;-3.70;99.90
17200;DHT22;8716;52.268;20.968;2024-01-11T05:25:29;-3.80;99.90
17200;DHT22;8716;52.268;20.968;2024-01-11T05:28:00;-3.70;99.90
17200;DHT22;8716;52.268;20.968;2024-01-11T05:30:29;-3.70;99.90
17200;DHT22;8716;52.268;20.968;2024-01-11T05:32:59;-3.70;99.90
17200;DHT22;8716;52.268;20.968;2024-01-11T05:35:28;-3.70;99.90
17200;DHT22;8716;52.268;20.968;2024-01-11T05:37:56;-3.70;99.90
17200;DHT22;8716;52.268;20.968;2024-01-11T05:40:24;-3.60;99.90
17200;DHT22;8716;52.268;20.968;2024-01-11T05:42:53;-3.60;99.90
17200;DHT22;8716;52.268;20.968;2024-01-11T05:45:21;-3.60;99.90
17200;DHT22;8716;52.268;20.968;2024-01-11T05:48:03;-3.60;99.90
17200;DHT22;8716;52.268;20.968;2024-01-11T05:50:32;-3.60;99.90
17200;DHT22;8716;52.268;20.968;2024-01-11T05:53:01;-3.60;99.90
17200;DHT22;8716;52.268;20.968;2024-01-11T05:55:29;-3.60;99.90
17200;DHT22;8716;52.268;20.968;2024-01-11T05:57:57;-3.50;99.90
17200;DHT22;8716;52.268;20.968;2024-01-11T06:00:26;-3.50;99.90
17200;DHT22;8716;52.268;20.968;2024-01-11T06:02:54;-3.50;99.90
17200;DHT22;8716;52.268;20.968;2024-01-11T06:05:25;-3.40;99.90
17200;DHT22;8716;52.268;20.968;2024-01-11T06:07:53;-3.50;99.90
17200;DHT22;8716;52.268;20.968;2024-01-11T06:10:22;-3.50;99.90
17200;DHT22;8716;52.268;20.968;2024-01-11T06:12:50;-3.50;99.90
17200;DHT22;8716;52.268;20.968;2024-01-11T06:15:19;-3.50;99.90
17200;DHT22;8716;52.268;20.968;2024-01-11T06:17:47;-3.50;99.90
17200;DHT22;8716;52.268;20.968;2024-01-11T06:20:16;-3.50;99.90
17200;DHT22;8716;52.268;20.968;2024-01-11T06:22:46;-3.50;99.90
17200;DHT22;8716;52.268;20.968;2024-01-11T06:25:15;-3.50;99.90
17200;DHT22;8716;52.268;20.968;2024-01-11T06:27:44;-3.40;99.90
17200;DHT22;8716;52.268;20.968;2024-01-11T06:30:13;-3.40;99.90
17200;DHT22;8716;52.268;20.968;2024-01-11T06:32:41;-3.40;99.90
17200;DHT22;8716;52.268;20.968;2024-01-11T06:35:10;-3.30;99.90
17200;DHT22;8716;52.268;20.968;2024-01-11T06:37:40;-3.40;99.90
17200;DHT22;8716;52.268;20.968;2024-01-11T06:40:10;-3.30;99.90
17200;DHT22;8716;52.268;20.968;2024-01-11T06:42:39;-3.30;99.90
17200;DHT22;8716;52.268;20.968;2024-01-11T06:45:09;-3.30;99.90
17200;DHT22;8716;52.268;20.968;2024-01-11T06:47:37;-3.20;99.90
17200;DHT22;8716;52.268;20.968;2024-01-11T06:50:07;-3.20;99.90
17200;DHT22;8716;52.268;20.968;2024-01-11T06:52:35;-3.20;99.90
17200;DHT22;8716;52.268;20.968;2024-01-11T06:55:05;-3.10;99.90
17200;DHT22;8716;52.268;20.968;2024-01-11T06:57:34;-3.10;99.90
17200;DHT22;8716;52.268;20.968;2024-01-11T07:00:03;-3.00;99.90
17200;DHT22;8716;52.268;20.968;2024-01-11T07:02:32;-3.00;99.90
17200;DHT22;8716;52.268;20.968;2024-01-11T07:05:01;-3.20;99.90
17200;DHT22;8716;52.268;20.968;2024-01-11T07:07:30;-3.00;99.90
17200;DHT22;8716;52.268;20.968;2024-01-11T07:10:00;-3.00;99.90
17200;DHT22;8716;52.268;20.968;2024-01-11T07:12:29;-3.00;99.90
17200;DHT22;8716;52.268;20.968;2024-01-11T07:14:59;-3.00;99.90
17200;DHT22;8716;52.268;20.968;2024-01-11T07:17:27;-3.00;99.90
17200;DHT22;8716;52.268;20.968;2024-01-11T07:20:11;-3.00;99.90
17200;DHT22;8716;52.268;20.968;2024-01-11T07:22:40;-3.00;99.90
17200;DHT22;8716;52.268;20.968;2024-01-11T07:25:09;-3.00;99.90
17200;DHT22;8716;52.268;20.968;2024-01-11T07:27:37;-3.00;99.90
17200;DHT22;8716;52.268;20.968;2024-01-11T07:30:09;-2.90;99.90
17200;DHT22;8716;52.268;20.968;2024-01-11T07:32:37;-2.80;99.90
17200;DHT22;8716;52.268;20.968;2024-01-11T07:35:07;-2.80;99.90
17200;DHT22;8716;52.268;20.968;2024-01-11T07:37:42;-2.80;99.90
17200;DHT22;8716;52.268;20.968;2024-01-11T07:40:14;-2.80;99.90
17200;DHT22;8716;52.268;20.968;2024-01-11T07:42:45;-2.80;99.90
17200;DHT22;8716;52.268;20.968;2024-01-11T07:45:15;-2.80;99.90
17200;DHT22;8716;52.268;20.968;2024-01-11T07:47:44;-2.70;99.90
17200;DHT22;8716;52.268;20.968;2024-01-11T07:50:13;-2.60;99.90
17200;DHT22;8716;52.268;20.968;2024-01-11T07:52:41;-2.60;99.90
17200;DHT22;8716;52.268;20.968;2024-01-11T07:55:10;-2.60;99.90
17200;DHT22;8716;52.268;20.968;2024-01-11T07:57:40;-2.50;99.90
17200;DHT22;8716;52.268;20.968;2024-01-11T08:00:09;-2.50;99.90
17200;DHT22;8716;52.268;20.968;2024-01-11T08:02:42;-2.50;99.90
17200;DHT22;8716;52.268;20.968;2024-01-11T08:05:11;-2.50;99.90
17200;DHT22;8716;52.268;20.968;2024-01-11T08:07:39;-2.40;99.90
17200;DHT22;8716;52.268;20.968;2024-01-11T08:10:09;-2.40;99.90
17200;DHT22;8716;52.268;20.968;2024-01-11T08:12:37;-2.30;99.90
17200;DHT22;8716;52.268;20.968;2024-01-11T08:15:08;-2.40;99.90
17200;DHT22;8716;52.268;20.968;2024-01-11T08:17:45;-2.30;99.90
17200;DHT22;8716;52.268;20.968;2024-01-11T08:20:15;-2.30;99.90
17200;DHT22;8716;52.268;20.968;2024-01-11T08:22:43;-2.30;99.90
17200;DHT22;8716;52.268;20.968;2024-01-11T08:25:13;-2.30;99.90
17200;DHT22;8716;52.268;20.968;2024-01-11T08:27:41;-2.30;99.90
17200;DHT22;8716;52.268;20.968;2024-01-11T08:30:10;-2.10;99.90
17200;DHT22;8716;52.268;20.968;2024-01-11T08:32:39;-2.10;99.90
17200;DHT22;8716;52.268;20.968;2024-01-11T08:35:11;-2.10;99.90
17200;DHT22;8716;52.268;20.968;2024-01-11T08:37:43;-2.10;99.90
17200;DHT22;8716;52.268;20.968;2024-01-11T08:40:12;-2.10;99.90
17200;DHT22;8716;52.268;20.968;2024-01-11T08:42:40;-2.10;99.90
17200;DHT22;8716;52.268;20.968;2024-01-11T08:45:10;-2.10;99.90
17200;DHT22;8716;52.268;20.968;2024-01-11T08:47:45;-2.00;99.90
17200;DHT22;8716;52.268;20.968;2024-01-11T08:50:16;-1.90;99.90
17200;DHT22;8716;52.268;20.968;2024-01-11T08:52:53;-1.90;99.90
17200;DHT22;8716;52.268;20.968;2024-01-11T08:55:25;-1.90;99.90
17200;DHT22;8716;52.268;20.968;2024-01-11T08:57:54;-1.80;99.90
17200;DHT22;8716;52.268;20.968;2024-01-11T09:00:24;-1.80;99.90
17200;DHT22;8716;52.268;20.968;2024-01-11T09:02:52;-1.80;99.90
17200;DHT22;8716;52.268;20.968;2024-01-11T09:05:22;-1.80;99.90
17200;DHT22;8716;52.268;20.968;2024-01-11T09:07:51;-1.80;99.90
17200;DHT22;8716;52.268;20.968;2024-01-11T09:10:20;-1.80;99.90
17200;DHT22;8716;52.268;20.968;2024-01-11T09:12:49;-1.80;99.90
17200;DHT22;8716;52.268;20.968;2024-01-11T09:15:17;-1.70;99.90
17200;DHT22;8716;52.268;20.968;2024-01-11T09:17:49;-1.70;99.90
17200;DHT22;8716;52.268;20.968;2024-01-11T09:20:18;-1.70;99.90
17200;DHT22;8716;52.268;20.968;2024-01-11T09:22:49;-1.60;99.90
17200;DHT22;8716;52.268;20.968;2024-01-11T09:25:18;-1.60;99.90
17200;DHT22;8716;52.268;20.968;2024-01-11T09:27:47;-1.60;99.90
17200;DHT22;8716;52.268;20.968;2024-01-11T09:30:16;-1.60;99.90
17200;DHT22;8716;52.268;20.968;2024-01-11T09:32:45;-1.60;99.90
17200;DHT22;8716;52.268;20.968;2024-01-11T09:35:15;-1.50;99.90
17200;DHT22;8716;52.268;20.968;2024-01-11T09:37:43;-1.40;99.90
17200;DHT22;8716;52.268;20.968;2024-01-11T09:40:15;-1.40;99.90
17200;DHT22;8716;52.268;20.968;2024-01-11T09:42:44;-1.20;99.90
17200;DHT22;8716;52.268;20.968;2024-01-11T09:45:14;-1.20;99.90
17200;DHT22;8716;52.268;20.968;2024-01-11T09:47:44;-1.10;99.90
17200;DHT22;8716;52.268;20.968;2024-01-11T09:50:14;-1.10;99.90
17200;DHT22;8716;52.268;20.968;2024-01-11T09:52:46;-1.00;99.90
17200;DHT22;8716;52.268;20.968;2024-01-11T09:55:18;-1.10;99.90
17200;DHT22;8716;52.268;20.968;2024-01-11T09:57:47;-1.10;99.90
17200;DHT22;8716;52.268;20.968;2024-01-11T10:00:18;-1.00;99.90
17200;DHT22;8716;52.268;20.968;2024-01-11T10:02:49;-1.00;99.90
17200;DHT22;8716;52.268;20.968;2024-01-11T10:05:19;-1.00;99.90
17200;DHT22;8716;52.268;20.968;2024-01-11T10:07:47;-1.00;99.90
17200;DHT22;8716;52.268;20.968;2024-01-11T10:10:17;-1.00;99.90
17200;DHT22;8716;52.268;20.968;2024-01-11T10:12:47;-1.00;99.90
17200;DHT22;8716;52.268;20.968;2024-01-11T10:15:16;-1.00;99.90
17200;DHT22;8716;52.268;20.968;2024-01-11T10:17:45;-1.00;99.90
17200;DHT22;8716;52.268;20.968;2024-01-11T10:20:15;-0.90;99.90
17200;DHT22;8716;52.268;20.968;2024-01-11T10:22:46;-0.90;99.90
17200;DHT22;8716;52.268;20.968;2024-01-11T10:25:17;-0.80;99.90
17200;DHT22;8716;52.268;20.968;2024-01-11T10:27:45;-0.80;99.90
17200;DHT22;8716;52.268;20.968;2024-01-11T10:30:16;-0.80;99.90
17200;DHT22;8716;52.268;20.968;2024-01-11T10:32:45;-0.70;99.90
17200;DHT22;8716;52.268;20.968;2024-01-11T10:35:14;-0.80;99.90
17200;DHT22;8716;52.268;20.968;2024-01-11T10:37:45;-0.80;99.90
17200;DHT22;8716;52.268;20.968;2024-01-11T10:40:17;-0.80;99.90
17200;DHT22;8716;52.268;20.968;2024-01-11T10:42:52;-0.70;99.90
17200;DHT22;8716;52.268;20.968;2024-01-11T10:45:21;-0.70;99.90
17200;DHT22;8716;52.268;20.968;2024-01-11T10:47:51;-0.60;99.90
17200;DHT22;8716;52.268;20.968;2024-01-11T10:50:22;-0.60;99.90
17200;DHT22;8716;52.268;20.968;2024-01-11T10:53:00;-0.60;99.90
17200;DHT22;8716;52.268;20.968;2024-01-11T10:55:34;-0.50;99.90
17200;DHT22;8716;52.268;20.968;2024-01-11T10:58:03;-0.50;99.90
17200;DHT22;8716;52.268;20.968;2024-01-11T11:00:34;-0.50;99.90
17200;DHT22;8716;52.268;20.968;2024-01-11T11:03:05;-0.50;99.90
17200;DHT22;8716;52.268;20.968;2024-01-11T11:05:35;-0.50;99.90
17200;DHT22;8716;52.268;20.968;2024-01-11T11:08:04;-0.40;99.90
17200;DHT22;8716;52.268;20.968;2024-01-11T11:10:36;-0.40;99.90
17200;DHT22;8716;52.268;20.968;2024-01-11T11:13:08;-0.50;99.90
17200;DHT22;8716;52.268;20.968;2024-01-11T11:15:38;-0.40;99.90
17200;DHT22;8716;52.268;20.968;2024-01-11T11:18:07;-0.40;99.90
17200;DHT22;8716;52.268;20.968;2024-01-11T11:20:35;-0.40;99.90
17200;DHT22;8716;52.268;20.968;2024-01-11T11:23:04;-0.30;99.90
17200;DHT22;8716;52.268;20.968;2024-01-11T11:25:35;-0.30;99.90
17200;DHT22;8716;52.268;20.968;2024-01-11T11:28:07;-0.20;99.90
17200;DHT22;8716;52.268;20.968;2024-01-11T11:30:37;-0.10;99.90
17200;DHT22;8716;52.268;20.968;2024-01-11T11:33:09;-0.20;99.90
17200;DHT22;8716;52.268;20.968;2024-01-11T11:35:38;-0.10;99.90
17200;DHT22;8716;52.268;20.968;2024-01-11T11:38:07;0.00;99.90
17200;DHT22;8716;52.268;20.968;2024-01-11T11:40:38;0.00;99.90
17200;DHT22;8716;52.268;20.968;2024-01-11T11:43:07;0.00;99.90
17200;DHT22;8716;52.268;20.968;2024-01-11T11:45:36;0.00;99.90
17200;DHT22;8716;52.268;20.968;2024-01-11T11:51:06;0.10;99.90
17200;DHT22;8716;52.268;20.968;2024-01-11T11:53:36;0.00;99.90
17200;DHT22;8716;52.268;20.968;2024-01-11T11:56:07;0.10;99.90
17200;DHT22;8716;52.268;20.968;2024-01-11T11:58:37;0.10;99.90
17200;DHT22;8716;52.268;20.968;2024-01-11T12:01:06;0.10;99.90
17200;DHT22;8716;52.268;20.968;2024-01-11T12:03:35;0.10;99.90
17200;DHT22;8716;52.268;20.968;2024-01-11T12:06:05;0.10;99.90
17200;DHT22;8716;52.268;20.968;2024-01-11T12:08:34;0.10;99.90
17200;DHT22;8716;52.268;20.968;2024-01-11T12:11:03;0.10;99.90
17200;DHT22;8716;52.268;20.968;2024-01-11T12:13:37;0.10;99.90
17200;DHT22;8716;52.268;20.968;2024-01-11T12:16:05;0.00;99.90
17200;DHT22;8716;52.268;20.968;2024-01-11T12:18:33;0.00;99.90
17200;DHT22;8716;52.268;20.968;2024-01-11T12:21:02;0.00;99.90
17200;DHT22;8716;52.268;20.968;2024-01-11T12:23:31;0.00;99.90
17200;DHT22;8716;52.268;20.968;2024-01-11T12:26:01;0.00;99.90
17200;DHT22;8716;52.268;20.968;2024-01-11T12:28:33;0.00;99.90
17200;DHT22;8716;52.268;20.968;2024-01-11T12:31:03;0.10;99.90
17200;DHT22;8716;52.268;20.968;2024-01-11T12:33:32;0.20;99.90
17200;DHT22;8716;52.268;20.968;2024-01-11T12:36:05;0.20;99.90
17200;DHT22;8716;52.268;20.968;2024-01-11T12:38:35;0.20;99.90
17200;DHT22;8716;52.268;20.968;2024-01-11T12:41:03;0.20;99.90
17200;DHT22;8716;52.268;20.968;2024-01-11T12:43:33;0.30;99.90
17200;DHT22;8716;52.268;20.968;2024-01-11T12:46:04;0.20;99.90
17200;DHT22;8716;52.268;20.968;2024-01-11T12:48:32;0.30;99.90
17200;DHT22;8716;52.268;20.968;2024-01-11T12:51:01;0.30;99.90
17200;DHT22;8716;52.268;20.968;2024-01-11T12:53:45;0.20;99.90
17200;DHT22;8716;52.268;20.968;2024-01-11T12:56:15;0.30;99.90
17200;DHT22;8716;52.268;20.968;2024-01-11T12:58:44;0.30;99.90
17200;DHT22;8716;52.268;20.968;2024-01-11T13:01:15;0.30;99.90
17200;DHT22;8716;52.268;20.968;2024-01-11T13:03:44;0.30;99.90
17200;DHT22;8716;52.268;20.968;2024-01-11T13:06:15;0.30;99.90
17200;DHT22;8716;52.268;20.968;2024-01-11T13:08:44;0.30;99.90
17200;DHT22;8716;52.268;20.968;2024-01-11T13:11:13;0.20;99.90
17200;DHT22;8716;52.268;20.968;2024-01-11T13:13:44;0.30;99.90
17200;DHT22;8716;52.268;20.968;2024-01-11T13:16:16;0.30;99.90
17200;DHT22;8716;52.268;20.968;2024-01-11T13:18:46;0.40;99.90
17200;DHT22;8716;52.268;20.968;2024-01-11T13:21:15;0.40;99.90
17200;DHT22;8716;52.268;20.968;2024-01-11T13:23:43;0.40;99.90
17200;DHT22;8716;52.268;20.968;2024-01-11T13:26:11;0.40;99.90
17200;DHT22;8716;52.268;20.968;2024-01-11T13:28:40;0.40;99.90
17200;DHT22;8716;52.268;20.968;2024-01-11T13:31:08;0.40;99.90
17200;DHT22;8716;52.268;20.968;2024-01-11T13:33:39;0.40;99.90
17200;DHT22;8716;52.268;20.968;2024-01-11T13:36:07;0.50;99.90
17200;DHT22;8716;52.268;20.968;2024-01-11T13:38:36;0.50;99.90
17200;DHT22;8716;52.268;20.968;2024-01-11T13:41:04;0.50;99.90
17200;DHT22;8716;52.268;20.968;2024-01-11T13:43:35;0.50;99.90
17200;DHT22;8716;52.268;20.968;2024-01-11T13:46:04;0.50;99.90
17200;DHT22;8716;52.268;20.968;2024-01-11T13:48:33;0.50;99.90
17200;DHT22;8716;52.268;20.968;2024-01-11T13:51:04;0.50;99.90
17200;DHT22;8716;52.268;20.968;2024-01-11T13:53:34;0.50;99.90
17200;DHT22;8716;52.268;20.968;2024-01-11T13:56:03;0.50;99.90
17200;DHT22;8716;52.268;20.968;2024-01-11T13:58:33;0.60;99.90
17200;DHT22;8716;52.268;20.968;2024-01-11T14:01:06;0.60;99.90
17200;DHT22;8716;52.268;20.968;2024-01-11T14:03:36;0.60;99.90
17200;DHT22;8716;52.268;20.968;2024-01-11T14:06:07;0.60;99.90
17200;DHT22;8716;52.268;20.968;2024-01-11T14:08:36;0.50;99.90
17200;DHT22;8716;52.268;20.968;2024-01-11T14:11:05;0.60;99.90
17200;DHT22;8716;52.268;20.968;2024-01-11T14:13:34;0.60;99.90
17200;DHT22;8716;52.268;20.968;2024-01-11T14:16:04;0.60;99.90
17200;DHT22;8716;52.268;20.968;2024-01-11T14:18:33;0.60;99.90
17200;DHT22;8716;52.268;20.968;2024-01-11T14:21:03;0.60;99.90
17200;DHT22;8716;52.268;20.968;2024-01-11T14:23:34;0.60;99.90
17200;DHT22;8716;52.268;20.968;2024-01-11T14:26:04;0.60;99.90
17200;DHT22;8716;52.268;20.968;2024-01-11T14:28:33;0.60;99.90
17200;DHT22;8716;52.268;20.968;2024-01-11T14:31:04;0.60;99.90
17200;DHT22;8716;52.268;20.968;2024-01-11T14:33:34;0.60;99.90
17200;DHT22;8716;52.268;20.968;2024-01-11T14:36:05;0.60;99.90
17200;DHT22;8716;52.268;20.968;2024-01-11T14:38:39;0.60;99.90
17200;DHT22;8716;52.268;20.968;2024-01-11T14:41:08;0.70;99.90
17200;DHT22;8716;52.268;20.968;2024-01-11T14:43:37;0.70;99.90
17200;DHT22;8716;52.268;20.968;2024-01-11T14:46:09;0.70;99.90
17200;DHT22;8716;52.268;20.968;2024-01-11T14:48:38;0.70;99.90
17200;DHT22;8716;52.268;20.968;2024-01-11T14:51:08;0.70;99.90
17200;DHT22;8716;52.268;20.968;2024-01-11T14:53:39;0.70;99.90
17200;DHT22;8716;52.268;20.968;2024-01-11T14:56:08;0.70;99.90
17200;DHT22;8716;52.268;20.968;2024-01-11T14:58:37;0.70;99.90
17200;DHT22;8716;52.268;20.968;2024-01-11T15:01:06;0.80;99.90
17200;DHT22;8716;52.268;20.968;2024-01-11T15:03:35;0.80;99.90
17200;DHT22;8716;52.268;20.968;2024-01-11T15:06:04;0.80;99.90
17200;DHT22;8716;52.268;20.968;2024-01-11T15:08:33;0.80;99.90
17200;DHT22;8716;52.268;20.968;2024-01-11T15:11:04;0.80;99.90
17200;DHT22;8716;52.268;20.968;2024-01-11T15:13:32;0.80;99.90
17200;DHT22;8716;52.268;20.968;2024-01-11T15:16:03;0.90;99.90
17200;DHT22;8716;52.268;20.968;2024-01-11T15:18:37;0.90;99.90
17200;DHT22;8716;52.268;20.968;2024-01-11T15:21:06;1.00;99.90
17200;DHT22;8716;52.268;20.968;2024-01-11T15:23:38;1.00;99.90
17200;DHT22;8716;52.268;20.968;2024-01-11T15:26:11;1.10;99.90
17200;DHT22;8716;52.268;20.968;2024-01-11T15:28:40;1.10;99.90
17200;DHT22;8716;52.268;20.968;2024-01-11T15:31:09;1.20;99.90
17200;DHT22;8716;52.268;20.968;2024-01-11T15:33:39;1.20;99.90
17200;DHT22;8716;52.268;20.968;2024-01-11T15:36:08;1.30;99.90
17200;DHT22;8716;52.268;20.968;2024-01-11T15:38:40;1.30;99.90
17200;DHT22;8716;52.268;20.968;2024-01-11T15:41:11;1.40;99.90
17200;DHT22;8716;52.268;20.968;2024-01-11T15:43:42;1.40;99.90
17200;DHT22;8716;52.268;20.968;2024-01-11T15:46:14;1.40;99.90
17200;DHT22;8716;52.268;20.968;2024-01-11T15:48:43;1.40;99.90
17200;DHT22;8716;52.268;20.968;2024-01-11T15:51:11;1.50;99.90
17200;DHT22;8716;52.268;20.968;2024-01-11T15:53:40;1.50;99.90